sensor_id;sensor_type;location;lat;lon;timestamp;P1;durP1;ratioP1;P2;durP2;ratioP2
53072;SDS011;38955;48.916;2.336;2023-04-25T00:01:29;4.50;;;2.60;;
53072;SDS011;38955;48.916;2.336;2023-04-25T00:03:31;6.70;;;2.17;;
53072;SDS011;38955;48.916;2.336;2023-04-25T00:05:33;6.13;;;2.50;;
53072;SDS011;38955;48.916;2.336;2023-04-25T00:07:37;5.75;;;2.25;;
53072;SDS011;38955;48.916;2.336;2023-04-25T00:09:40;4.93;;;2.38;;
53072;SDS011;38955;48.916;2.336;2023-04-25T00:11:42;5.47;;;2.50;;
53072;SDS011;38955;48.916;2.336;2023-04-25T00:13:45;5.85;;;2.63;;
53072;SDS011;38955;48.916;2.336;2023-04-25T00:15:47;3.88;;;2.30;;
53072;SDS011;38955;48.916;2.336;2023-04-25T00:17:51;6.00;;;2.45;;
53072;SDS011;38955;48.916;2.336;2023-04-25T00:19:54;8.35;;;2.88;;
53072;SDS011;38955;48.916;2.336;2023-04-25T00:21:57;5.30;;;2.80;;
53072;SDS011;38955;48.916;2.336;2023-04-25T00:24:01;8.20;;;2.65;;
53072;SDS011;38955;48.916;2.336;2023-04-25T00:26:03;8.20;;;2.75;;
53072;SDS011;38955;48.916;2.336;2023-04-25T00:28:06;5.97;;;2.67;;
53072;SDS011;38955;48.916;2.336;2023-04-25T00:30:08;8.35;;;2.53;;
53072;SDS011;38955;48.916;2.336;2023-04-25T00:32:11;5.20;;;2.72;;
53072;SDS011;38955;48.916;2.336;2023-04-25T00:34:13;7.07;;;2.63;;
53072;SDS011;38955;48.916;2.336;2023-04-25T00:36:18;4.50;;;2.38;;
53072;SDS011;38955;48.916;2.336;2023-04-25T00:38:21;6.13;;;2.55;;
53072;SDS011;38955;48.916;2.336;2023-04-25T00:40:24;6.85;;;2.90;;
53072;SDS011;38955;48.916;2.336;2023-04-25T00:42:28;6.70;;;2.75;;
53072;SDS011;38955;48.916;2.336;2023-04-25T00:44:31;5.75;;;2.83;;
53072;SDS011;38955;48.916;2.336;2023-04-25T00:46:33;8.35;;;2.50;;
53072;SDS011;38955;48.916;2.336;2023-04-25T00:48:36;9.15;;;3.15;;
53072;SDS011;38955;48.916;2.336;2023-04-25T00:50:38;7.28;;;2.58;;
53072;SDS011;38955;48.916;2.336;2023-04-25T00:52:43;7.22;;;2.40;;
53072;SDS011;38955;48.916;2.336;2023-04-25T00:54:46;6.55;;;2.60;;
53072;SDS011;38955;48.916;2.336;2023-04-25T00:56:49;8.82;;;2.65;;
53072;SDS011;38955;48.916;2.336;2023-04-25T00:58:52;9.65;;;2.55;;
53072;SDS011;38955;48.916;2.336;2023-04-25T01:01:00;5.57;;;2.78;;
53072;SDS011;38955;48.916;2.336;2023-04-25T01:03:03;6.82;;;2.88;;
53072;SDS011;38955;48.916;2.336;2023-04-25T01:05:05;7.75;;;2.35;;
53072;SDS011;38955;48.916;2.336;2023-04-25T01:07:07;7.90;;;2.70;;
53072;SDS011;38955;48.916;2.336;2023-04-25T01:09:11;6.07;;;2.67;;
53072;SDS011;38955;48.916;2.336;2023-04-25T01:11:14;8.98;;;3.28;;
53072;SDS011;38955;48.916;2.336;2023-04-25T01:13:17;10.63;;;2.80;;
53072;SDS011;38955;48.916;2.336;2023-04-25T01:15:20;10.20;;;2.47;;
53072;SDS011;38955;48.916;2.336;2023-04-25T01:17:22;7.18;;;2.90;;
53072;SDS011;38955;48.916;2.336;2023-04-25T01:19:25;10.43;;;2.88;;
53072;SDS011;38955;48.916;2.336;2023-04-25T01:21:28;5.97;;;2.40;;
53072;SDS011;38955;48.916;2.336;2023-04-25T01:23:32;6.05;;;2.55;;
53072;SDS011;38955;48.916;2.336;2023-04-25T01:25:34;10.15;;;2.65;;
53072;SDS011;38955;48.916;2.336;2023-04-25T01:27:37;8.00;;;2.90;;
53072;SDS011;38955;48.916;2.336;2023-04-25T01:29:39;8.13;;;2.88;;
53072;SDS011;38955;48.916;2.336;2023-04-25T01:31:41;10.65;;;3.20;;
53072;SDS011;38955;48.916;2.336;2023-04-25T01:33:48;6.60;;;3.17;;
53072;SDS011;38955;48.916;2.336;2023-04-25T01:35:50;11.73;;;3.15;;
53072;SDS011;38955;48.916;2.336;2023-04-25T01:37:54;7.85;;;3.15;;
53072;SDS011;38955;48.916;2.336;2023-04-25T01:39:56;10.23;;;3.00;;
53072;SDS011;38955;48.916;2.336;2023-04-25T01:41:59;9.63;;;2.60;;
53072;SDS011;38955;48.916;2.336;2023-04-25T01:44:01;7.97;;;2.70;;
53072;SDS011;38955;48.916;2.336;2023-04-25T01:46:04;8.65;;;2.88;;
53072;SDS011;38955;48.916;2.336;2023-04-25T01:48:06;6.57;;;2.60;;
53072;SDS011;38955;48.916;2.336;2023-04-25T01:50:09;10.50;;;2.75;;
53072;SDS011;38955;48.916;2.336;2023-04-25T01:52:13;7.45;;;2.92;;
53072;SDS011;38955;48.916;2.336;2023-04-25T01:54:16;11.55;;;3.40;;
53072;SDS011;38955;48.916;2.336;2023-04-25T01:56:19;9.90;;;2.92;;
53072;SDS011;38955;48.916;2.336;2023-04-25T01:58:21;12.98;;;3.80;;
53072;SDS011;38955;48.916;2.336;2023-04-25T02:00:23;12.10;;;3.45;;
53072;SDS011;38955;48.916;2.336;2023-04-25T02:02:26;10.35;;;2.92;;
53072;SDS011;38955;48.916;2.336;2023-04-25T02:04:28;13.45;;;3.00;;
53072;SDS011;38955;48.916;2.336;2023-04-25T02:06:30;9.27;;;3.25;;
53072;SDS011;38955;48.916;2.336;2023-04-25T02:08:32;12.80;;;3.45;;
53072;SDS011;38955;48.916;2.336;2023-04-25T02:10:36;9.43;;;3.63;;
53072;SDS011;38955;48.916;2.336;2023-04-25T02:12:38;12.32;;;3.47;;
53072;SDS011;38955;48.916;2.336;2023-04-25T02:14:40;9.55;;;3.28;;
53072;SDS011;38955;48.916;2.336;2023-04-25T02:16:43;8.00;;;3.47;;
53072;SDS011;38955;48.916;2.336;2023-04-25T02:18:45;10.32;;;3.42;;
53072;SDS011;38955;48.916;2.336;2023-04-25T02:20:48;12.18;;;3.88;;
53072;SDS011;38955;48.916;2.336;2023-04-25T02:22:50;12.77;;;3.85;;
53072;SDS011;38955;48.916;2.336;2023-04-25T02:24:52;7.07;;;3.28;;
53072;SDS011;38955;48.916;2.336;2023-04-25T02:26:56;5.57;;;3.28;;
53072;SDS011;38955;48.916;2.336;2023-04-25T02:28:58;12.38;;;3.78;;
53072;SDS011;38955;48.916;2.336;2023-04-25T02:31:01;10.55;;;3.45;;
53072;SDS011;38955;48.916;2.336;2023-04-25T02:33:03;10.98;;;3.67;;
53072;SDS011;38955;48.916;2.336;2023-04-25T02:35:05;9.80;;;3.20;;
53072;SDS011;38955;48.916;2.336;2023-04-25T02:37:08;14.55;;;3.20;;
53072;SDS011;38955;48.916;2.336;2023-04-25T02:39:10;10.38;;;3.88;;
53072;SDS011;38955;48.916;2.336;2023-04-25T02:41:13;10.80;;;3.75;;
53072;SDS011;38955;48.916;2.336;2023-04-25T02:43:16;7.55;;;3.20;;
53072;SDS011;38955;48.916;2.336;2023-04-25T02:45:18;14.73;;;4.00;;
53072;SDS011;38955;48.916;2.336;2023-04-25T02:47:20;12.93;;;4.28;;
53072;SDS011;38955;48.916;2.336;2023-04-25T02:49:22;9.05;;;4.20;;
53072;SDS011;38955;48.916;2.336;2023-04-25T02:51:24;8.63;;;3.80;;
53072;SDS011;38955;48.916;2.336;2023-04-25T02:53:27;11.68;;;4.00;;
53072;SDS011;38955;48.916;2.336;2023-04-25T02:55:29;8.75;;;3.55;;
53072;SDS011;38955;48.916;2.336;2023-04-25T02:57:34;14.40;;;4.03;;
53072;SDS011;38955;48.916;2.336;2023-04-25T02:59:37;13.40;;;3.83;;
53072;SDS011;38955;48.916;2.336;2023-04-25T03:01:40;14.80;;;4.88;;
53072;SDS011;38955;48.916;2.336;2023-04-25T03:03:42;12.68;;;3.60;;
53072;SDS011;38955;48.916;2.336;2023-04-25T03:05:44;14.30;;;3.92;;
53072;SDS011;38955;48.916;2.336;2023-04-25T03:07:48;11.63;;;3.78;;
53072;SDS011;38955;48.916;2.336;2023-04-25T03:09:50;16.27;;;4.28;;
53072;SDS011;38955;48.916;2.336;2023-04-25T03:11:52;13.80;;;4.20;;
53072;SDS011;38955;48.916;2.336;2023-04-25T03:13:54;15.27;;;4.75;;
53072;SDS011;38955;48.916;2.336;2023-04-25T03:15:57;12.45;;;4.32;;
53072;SDS011;38955;48.916;2.336;2023-04-25T03:18:00;12.15;;;4.05;;
53072;SDS011;38955;48.916;2.336;2023-04-25T03:20:02;9.90;;;4.15;;
53072;SDS011;38955;48.916;2.336;2023-04-25T03:22:05;13.15;;;3.92;;
53072;SDS011;38955;48.916;2.336;2023-04-25T03:26:31;14.60;;;4.40;;
53072;SDS011;38955;48.916;2.336;2023-04-25T03:28:33;15.43;;;4.47;;
53072;SDS011;38955;48.916;2.336;2023-04-25T03:30:35;14.13;;;4.35;;
53072;SDS011;38955;48.916;2.336;2023-04-25T03:32:38;13.68;;;4.20;;
53072;SDS011;38955;48.916;2.336;2023-04-25T03:34:40;14.32;;;4.43;;
53072;SDS011;38955;48.916;2.336;2023-04-25T03:36:42;18.15;;;4.57;;
53072;SDS011;38955;48.916;2.336;2023-04-25T03:38:44;13.30;;;4.40;;
53072;SDS011;38955;48.916;2.336;2023-04-25T03:40:47;11.23;;;4.28;;
53072;SDS011;38955;48.916;2.336;2023-04-25T03:42:49;20.67;;;5.03;;
53072;SDS011;38955;48.916;2.336;2023-04-25T03:44:51;13.50;;;4.78;;
53072;SDS011;38955;48.916;2.336;2023-04-25T03:46:53;15.95;;;5.25;;
53072;SDS011;38955;48.916;2.336;2023-04-25T03:48:57;18.45;;;5.20;;
53072;SDS011;38955;48.916;2.336;2023-04-25T03:51:00;14.30;;;3.92;;
53072;SDS011;38955;48.916;2.336;2023-04-25T03:53:02;13.82;;;4.82;;
53072;SDS011;38955;48.916;2.336;2023-04-25T03:55:05;22.63;;;5.30;;
53072;SDS011;38955;48.916;2.336;2023-04-25T03:57:07;13.57;;;4.38;;
53072;SDS011;38955;48.916;2.336;2023-04-25T03:59:09;13.35;;;5.03;;
53072;SDS011;38955;48.916;2.336;2023-04-25T04:01:12;12.75;;;4.90;;
53072;SDS011;38955;48.916;2.336;2023-04-25T04:03:14;17.35;;;4.65;;
53072;SDS011;38955;48.916;2.336;2023-04-25T04:05:17;14.93;;;4.80;;
53072;SDS011;38955;48.916;2.336;2023-04-25T04:07:20;13.38;;;3.72;;
53072;SDS011;38955;48.916;2.336;2023-04-25T04:09:22;19.25;;;4.88;;
53072;SDS011;38955;48.916;2.336;2023-04-25T04:11:24;18.90;;;4.85;;
53072;SDS011;38955;48.916;2.336;2023-04-25T04:13:27;18.45;;;4.72;;
53072;SDS011;38955;48.916;2.336;2023-04-25T04:15:29;11.10;;;3.90;;
53072;SDS011;38955;48.916;2.336;2023-04-25T04:17:34;10.18;;;4.07;;
53072;SDS011;38955;48.916;2.336;2023-04-25T04:19:36;12.45;;;5.15;;
53072;SDS011;38955;48.916;2.336;2023-04-25T04:21:39;13.80;;;4.25;;
53072;SDS011;38955;48.916;2.336;2023-04-25T04:23:42;14.15;;;4.82;;
53072;SDS011;38955;48.916;2.336;2023-04-25T04:25:43;15.95;;;4.90;;
53072;SDS011;38955;48.916;2.336;2023-04-25T04:27:46;10.85;;;4.45;;
53072;SDS011;38955;48.916;2.336;2023-04-25T04:29:48;14.77;;;5.35;;
53072;SDS011;38955;48.916;2.336;2023-04-25T04:31:51;19.63;;;4.65;;
53072;SDS011;38955;48.916;2.336;2023-04-25T04:33:54;14.43;;;5.10;;
53072;SDS011;38955;48.916;2.336;2023-04-25T04:35:56;16.17;;;5.05;;
53072;SDS011;38955;48.916;2.336;2023-04-25T04:38:00;14.23;;;5.38;;
53072;SDS011;38955;48.916;2.336;2023-04-25T04:40:02;15.25;;;4.70;;
53072;SDS011;38955;48.916;2.336;2023-04-25T04:42:06;14.48;;;4.45;;
53072;SDS011;38955;48.916;2.336;2023-04-25T04:44:09;17.85;;;5.20;;
53072;SDS011;38955;48.916;2.336;2023-04-25T04:46:11;13.35;;;4.72;;
53072;SDS011;38955;48.916;2.336;2023-04-25T04:48:14;15.90;;;5.00;;
53072;SDS011;38955;48.916;2.336;2023-04-25T04:50:16;14.80;;;5.25;;
53072;SDS011;38955;48.916;2.336;2023-04-25T04:52:18;17.35;;;5.95;;
53072;SDS011;38955;48.916;2.336;2023-04-25T04:54:22;12.10;;;5.35;;
53072;SDS011;38955;48.916;2.336;2023-04-25T04:56:24;17.88;;;5.63;;
53072;SDS011;38955;48.916;2.336;2023-04-25T04:58:26;19.08;;;5.93;;
53072;SDS011;38955;48.916;2.336;2023-04-25T05:00:31;16.50;;;5.20;;
53072;SDS011;38955;48.916;2.336;2023-04-25T05:02:33;13.93;;;5.07;;
53072;SDS011;38955;48.916;2.336;2023-04-25T05:04:35;19.48;;;5.95;;
53072;SDS011;38955;48.916;2.336;2023-04-25T05:06:37;18.30;;;5.65;;
53072;SDS011;38955;48.916;2.336;2023-04-25T05:08:39;16.55;;;5.57;;
53072;SDS011;38955;48.916;2.336;2023-04-25T05:10:43;16.92;;;5.75;;
53072;SDS011;38955;48.916;2.336;2023-04-25T05:12:45;15.38;;;6.15;;
53072;SDS011;38955;48.916;2.336;2023-04-25T05:14:48;16.05;;;5.95;;
53072;SDS011;38955;48.916;2.336;2023-04-25T05:16:50;19.38;;;5.78;;
53072;SDS011;38955;48.916;2.336;2023-04-25T05:18:52;18.48;;;6.10;;
53072;SDS011;38955;48.916;2.336;2023-04-25T05:20:54;14.90;;;5.10;;
53072;SDS011;38955;48.916;2.336;2023-04-25T05:22:56;13.40;;;5.13;;
53072;SDS011;38955;48.916;2.336;2023-04-25T05:24:58;11.15;;;5.20;;
53072;SDS011;38955;48.916;2.336;2023-04-25T05:27:02;13.90;;;6.32;;
53072;SDS011;38955;48.916;2.336;2023-04-25T05:29:06;16.23;;;6.05;;
53072;SDS011;38955;48.916;2.336;2023-04-25T05:31:09;14.50;;;4.90;;
53072;SDS011;38955;48.916;2.336;2023-04-25T05:33:11;16.00;;;6.65;;
53072;SDS011;38955;48.916;2.336;2023-04-25T05:35:13;13.90;;;5.63;;
53072;SDS011;38955;48.916;2.336;2023-04-25T05:37:15;15.32;;;5.43;;
53072;SDS011;38955;48.916;2.336;2023-04-25T05:39:17;11.38;;;5.78;;
53072;SDS011;38955;48.916;2.336;2023-04-25T05:41:20;17.13;;;6.22;;
53072;SDS011;38955;48.916;2.336;2023-04-25T05:43:23;14.50;;;5.50;;
53072;SDS011;38955;48.916;2.336;2023-04-25T05:45:25;13.88;;;6.70;;
53072;SDS011;38955;48.916;2.336;2023-04-25T05:47:28;18.20;;;6.70;;
53072;SDS011;38955;48.916;2.336;2023-04-25T05:49:30;19.08;;;7.05;;
53072;SDS011;38955;48.916;2.336;2023-04-25T05:51:32;20.38;;;6.78;;
53072;SDS011;38955;48.916;2.336;2023-04-25T05:53:34;26.95;;;7.43;;
53072;SDS011;38955;48.916;2.336;2023-04-25T05:55:39;17.05;;;6.18;;
53072;SDS011;38955;48.916;2.336;2023-04-25T05:57:44;19.85;;;6.78;;
53072;SDS011;38955;48.916;2.336;2023-04-25T05:59:48;22.63;;;7.35;;
53072;SDS011;38955;48.916;2.336;2023-04-25T06:01:50;13.82;;;6.70;;
53072;SDS011;38955;48.916;2.336;2023-04-25T06:03:53;18.77;;;6.28;;
53072;SDS011;38955;48.916;2.336;2023-04-25T06:05:58;15.00;;;6.03;;
53072;SDS011;38955;48.916;2.336;2023-04-25T06:08:00;14.60;;;6.97;;
53072;SDS011;38955;48.916;2.336;2023-04-25T06:10:06;20.58;;;7.20;;
53072;SDS011;38955;48.916;2.336;2023-04-25T06:12:13;11.60;;;5.00;;
53072;SDS011;38955;48.916;2.336;2023-04-25T06:14:15;19.35;;;6.07;;
53072;SDS011;38955;48.916;2.336;2023-04-25T06:16:21;19.38;;;5.90;;
53072;SDS011;38955;48.916;2.336;2023-04-25T06:18:24;12.38;;;5.03;;
53072;SDS011;38955;48.916;2.336;2023-04-25T06:20:27;11.77;;;4.70;;
53072;SDS011;38955;48.916;2.336;2023-04-25T06:22:30;8.50;;;4.22;;
53072;SDS011;38955;48.916;2.336;2023-04-25T06:24:32;10.90;;;3.90;;
53072;SDS011;38955;48.916;2.336;2023-04-25T06:26:34;17.67;;;4.80;;
53072;SDS011;38955;48.916;2.336;2023-04-25T06:28:38;13.55;;;4.38;;
53072;SDS011;38955;48.916;2.336;2023-04-25T06:30:40;10.85;;;3.63;;
53072;SDS011;38955;48.916;2.336;2023-04-25T06:32:43;14.98;;;4.25;;
53072;SDS011;38955;48.916;2.336;2023-04-25T06:34:46;8.35;;;3.50;;
53072;SDS011;38955;48.916;2.336;2023-04-25T06:36:48;6.78;;;3.40;;
53072;SDS011;38955;48.916;2.336;2023-04-25T06:38:50;5.43;;;3.50;;
53072;SDS011;38955;48.916;2.336;2023-04-25T06:40:52;9.93;;;3.95;;
53072;SDS011;38955;48.916;2.336;2023-04-25T06:42:54;7.38;;;3.63;;
53072;SDS011;38955;48.916;2.336;2023-04-25T06:44:56;10.60;;;4.13;;
53072;SDS011;38955;48.916;2.336;2023-04-25T06:46:58;8.07;;;4.00;;
53072;SDS011;38955;48.916;2.336;2023-04-25T06:49:02;10.55;;;4.65;;
53072;SDS011;38955;48.916;2.336;2023-04-25T06:51:04;11.50;;;4.68;;
53072;SDS011;38955;48.916;2.336;2023-04-25T06:53:06;9.60;;;5.05;;
53072;SDS011;38955;48.916;2.336;2023-04-25T06:55:10;12.32;;;5.95;;
53072;SDS011;38955;48.916;2.336;2023-04-25T06:57:12;17.30;;;6.20;;
53072;SDS011;38955;48.916;2.336;2023-04-25T07:01:19;12.30;;;8.13;;
53072;SDS011;38955;48.916;2.336;2023-04-25T07:03:21;17.77;;;8.77;;
53072;SDS011;38955;48.916;2.336;2023-04-25T07:05:25;19.02;;;10.25;;
53072;SDS011;38955;48.916;2.336;2023-04-25T07:07:27;19.67;;;10.45;;
53072;SDS011;38955;48.916;2.336;2023-04-25T07:09:29;19.65;;;10.55;;
53072;SDS011;38955;48.916;2.336;2023-04-25T07:11:31;17.73;;;9.82;;
53072;SDS011;38955;48.916;2.336;2023-04-25T07:13:33;25.67;;;12.05;;
53072;SDS011;38955;48.916;2.336;2023-04-25T07:15:35;21.90;;;11.68;;
53072;SDS011;38955;48.916;2.336;2023-04-25T07:17:38;20.65;;;11.40;;
53072;SDS011;38955;48.916;2.336;2023-04-25T07:19:42;27.23;;;12.23;;
53072;SDS011;38955;48.916;2.336;2023-04-25T07:21:46;25.10;;;11.07;;
53072;SDS011;38955;48.916;2.336;2023-04-25T07:23:48;19.70;;;10.60;;
53072;SDS011;38955;48.916;2.336;2023-04-25T07:25:50;27.92;;;12.40;;
53072;SDS011;38955;48.916;2.336;2023-04-25T07:27:53;29.20;;;12.57;;
53072;SDS011;38955;48.916;2.336;2023-04-25T07:29:55;25.38;;;10.75;;
53072;SDS011;38955;48.916;2.336;2023-04-25T07:31:57;31.58;;;12.38;;
53072;SDS011;38955;48.916;2.336;2023-04-25T07:33:59;21.02;;;11.38;;
53072;SDS011;38955;48.916;2.336;2023-04-25T07:36:02;23.48;;;11.48;;
53072;SDS011;38955;48.916;2.336;2023-04-25T07:38:06;21.25;;;10.73;;
53072;SDS011;38955;48.916;2.336;2023-04-25T07:40:09;22.35;;;11.25;;
53072;SDS011;38955;48.916;2.336;2023-04-25T07:42:12;30.27;;;11.23;;
53072;SDS011;38955;48.916;2.336;2023-04-25T07:44:17;31.40;;;11.93;;
53072;SDS011;38955;48.916;2.336;2023-04-25T07:46:19;25.25;;;11.55;;
53072;SDS011;38955;48.916;2.336;2023-04-25T07:48:21;29.65;;;12.13;;
53072;SDS011;38955;48.916;2.336;2023-04-25T07:50:23;26.27;;;9.98;;
53072;SDS011;38955;48.916;2.336;2023-04-25T07:52:26;22.13;;;8.73;;
53072;SDS011;38955;48.916;2.336;2023-04-25T07:54:29;28.40;;;11.50;;
53072;SDS011;38955;48.916;2.336;2023-04-25T07:56:31;34.25;;;11.23;;
53072;SDS011;38955;48.916;2.336;2023-04-25T07:58:52;28.48;;;11.10;;
53072;SDS011;38955;48.916;2.336;2023-04-25T08:00:55;28.45;;;10.65;;
53072;SDS011;38955;48.916;2.336;2023-04-25T08:02:57;22.00;;;10.88;;
53072;SDS011;38955;48.916;2.336;2023-04-25T08:05:00;25.65;;;11.65;;
53072;SDS011;38955;48.916;2.336;2023-04-25T08:07:02;25.98;;;11.23;;
53072;SDS011;38955;48.916;2.336;2023-04-25T08:09:04;27.92;;;10.25;;
53072;SDS011;38955;48.916;2.336;2023-04-25T08:11:08;25.48;;;10.95;;
53072;SDS011;38955;48.916;2.336;2023-04-25T08:13:10;22.45;;;10.75;;
53072;SDS011;38955;48.916;2.336;2023-04-25T08:15:12;26.35;;;10.55;;
53072;SDS011;38955;48.916;2.336;2023-04-25T08:17:15;22.23;;;10.82;;
53072;SDS011;38955;48.916;2.336;2023-04-25T08:19:17;24.15;;;9.77;;
53072;SDS011;38955;48.916;2.336;2023-04-25T08:21:19;22.48;;;10.02;;
53072;SDS011;38955;48.916;2.336;2023-04-25T08:23:21;26.40;;;11.55;;
53072;SDS011;38955;48.916;2.336;2023-04-25T08:25:23;19.88;;;9.50;;
53072;SDS011;38955;48.916;2.336;2023-04-25T08:27:27;19.88;;;9.55;;
53072;SDS011;38955;48.916;2.336;2023-04-25T08:29:29;20.27;;;9.52;;
53072;SDS011;38955;48.916;2.336;2023-04-25T08:31:31;29.00;;;9.55;;
53072;SDS011;38955;48.916;2.336;2023-04-25T08:33:33;28.15;;;8.75;;
53072;SDS011;38955;48.916;2.336;2023-04-25T08:35:35;36.25;;;9.93;;
53072;SDS011;38955;48.916;2.336;2023-04-25T08:37:38;25.10;;;8.95;;
53072;SDS011;38955;48.916;2.336;2023-04-25T08:39:40;26.77;;;8.98;;
53072;SDS011;38955;48.916;2.336;2023-04-25T08:41:43;22.90;;;8.57;;
53072;SDS011;38955;48.916;2.336;2023-04-25T08:43:47;19.52;;;8.15;;
53072;SDS011;38955;48.916;2.336;2023-04-25T08:45:50;29.38;;;8.93;;
53072;SDS011;38955;48.916;2.336;2023-04-25T08:47:57;23.23;;;8.35;;
53072;SDS011;38955;48.916;2.336;2023-04-25T08:50:02;25.60;;;9.17;;
53072;SDS011;38955;48.916;2.336;2023-04-25T08:52:05;21.17;;;9.13;;
53072;SDS011;38955;48.916;2.336;2023-04-25T08:54:12;26.65;;;8.43;;
53072;SDS011;38955;48.916;2.336;2023-04-25T08:56:18;39.15;;;9.45;;
53072;SDS011;38955;48.916;2.336;2023-04-25T08:58:23;26.80;;;8.77;;
53072;SDS011;38955;48.916;2.336;2023-04-25T09:00:27;29.38;;;8.77;;
53072;SDS011;38955;48.916;2.336;2023-04-25T09:02:29;21.80;;;8.07;;
53072;SDS011;38955;48.916;2.336;2023-04-25T09:04:32;23.13;;;7.70;;
53072;SDS011;38955;48.916;2.336;2023-04-25T09:06:34;22.52;;;8.18;;
53072;SDS011;38955;48.916;2.336;2023-04-25T09:08:37;28.67;;;7.70;;
53072;SDS011;38955;48.916;2.336;2023-04-25T09:10:41;20.00;;;7.68;;
53072;SDS011;38955;48.916;2.336;2023-04-25T09:12:55;18.58;;;7.25;;
53072;SDS011;38955;48.916;2.336;2023-04-25T09:15:05;26.83;;;6.88;;
53072;SDS011;38955;48.916;2.336;2023-04-25T09:17:09;16.15;;;6.18;;
53072;SDS011;38955;48.916;2.336;2023-04-25T09:19:20;18.87;;;6.50;;
53072;SDS011;38955;48.916;2.336;2023-04-25T09:21:38;20.30;;;7.60;;
53072;SDS011;38955;48.916;2.336;2023-04-25T09:23:41;37.08;;;8.55;;
53072;SDS011;38955;48.916;2.336;2023-04-25T09:25:45;23.30;;;7.78;;
53072;SDS011;38955;48.916;2.336;2023-04-25T09:27:49;18.30;;;6.97;;
53072;SDS011;38955;48.916;2.336;2023-04-25T09:29:56;27.33;;;7.40;;
53072;SDS011;38955;48.916;2.336;2023-04-25T09:34:28;22.85;;;7.43;;
53072;SDS011;38955;48.916;2.336;2023-04-25T09:36:41;17.45;;;6.93;;
53072;SDS011;38955;48.916;2.336;2023-04-25T09:38:44;26.80;;;7.45;;
53072;SDS011;38955;48.916;2.336;2023-04-25T09:40:47;29.95;;;7.60;;
53072;SDS011;38955;48.916;2.336;2023-04-25T09:42:51;24.10;;;6.80;;
53072;SDS011;38955;48.916;2.336;2023-04-25T09:44:53;22.10;;;6.88;;
53072;SDS011;38955;48.916;2.336;2023-04-25T09:46:56;16.90;;;6.88;;
53072;SDS011;38955;48.916;2.336;2023-04-25T09:49:05;23.98;;;6.65;;
53072;SDS011;38955;48.916;2.336;2023-04-25T09:51:09;21.30;;;6.72;;
53072;SDS011;38955;48.916;2.336;2023-04-25T09:53:15;22.60;;;6.38;;
53072;SDS011;38955;48.916;2.336;2023-04-25T09:55:18;14.98;;;5.82;;
53072;SDS011;38955;48.916;2.336;2023-04-25T09:57:21;20.50;;;6.28;;
53072;SDS011;38955;48.916;2.336;2023-04-25T09:59:24;19.63;;;6.03;;
53072;SDS011;38955;48.916;2.336;2023-04-25T10:01:26;20.98;;;6.47;;
53072;SDS011;38955;48.916;2.336;2023-04-25T10:03:29;19.08;;;5.72;;
53072;SDS011;38955;48.916;2.336;2023-04-25T10:05:34;23.13;;;6.57;;
53072;SDS011;38955;48.916;2.336;2023-04-25T10:07:39;22.90;;;6.47;;
53072;SDS011;38955;48.916;2.336;2023-04-25T10:09:43;12.88;;;4.82;;
53072;SDS011;38955;48.916;2.336;2023-04-25T10:11:48;16.77;;;5.57;;
53072;SDS011;38955;48.916;2.336;2023-04-25T10:13:51;17.45;;;5.35;;
53072;SDS011;38955;48.916;2.336;2023-04-25T10:15:55;13.77;;;4.55;;
53072;SDS011;38955;48.916;2.336;2023-04-25T10:17:59;16.77;;;5.40;;
53072;SDS011;38955;48.916;2.336;2023-04-25T10:20:02;12.15;;;5.15;;
53072;SDS011;38955;48.916;2.336;2023-04-25T10:22:13;16.83;;;5.07;;
53072;SDS011;38955;48.916;2.336;2023-04-25T10:24:18;16.67;;;5.35;;
53072;SDS011;38955;48.916;2.336;2023-04-25T10:26:26;16.15;;;4.35;;
53072;SDS011;38955;48.916;2.336;2023-04-25T10:28:37;18.58;;;4.88;;
53072;SDS011;38955;48.916;2.336;2023-04-25T10:30:57;11.95;;;4.13;;
53072;SDS011;38955;48.916;2.336;2023-04-25T10:33:00;13.27;;;4.63;;
53072;SDS011;38955;48.916;2.336;2023-04-25T10:35:12;13.68;;;4.93;;
53072;SDS011;38955;48.916;2.336;2023-04-25T10:37:18;15.88;;;5.28;;
53072;SDS011;38955;48.916;2.336;2023-04-25T10:39:24;19.13;;;4.83;;
53072;SDS011;38955;48.916;2.336;2023-04-25T10:41:28;14.02;;;4.75;;
53072;SDS011;38955;48.916;2.336;2023-04-25T10:45:50;13.65;;;4.72;;
53072;SDS011;38955;48.916;2.336;2023-04-25T10:47:53;17.73;;;5.40;;
53072;SDS011;38955;48.916;2.336;2023-04-25T10:49:56;14.50;;;4.80;;
53072;SDS011;38955;48.916;2.336;2023-04-25T10:52:13;13.70;;;4.25;;
53072;SDS011;38955;48.916;2.336;2023-04-25T10:54:26;14.85;;;4.45;;
53072;SDS011;38955;48.916;2.336;2023-04-25T10:56:29;15.30;;;4.80;;
53072;SDS011;38955;48.916;2.336;2023-04-25T10:58:32;16.65;;;5.32;;
53072;SDS011;38955;48.916;2.336;2023-04-25T11:00:34;14.00;;;5.03;;
53072;SDS011;38955;48.916;2.336;2023-04-25T11:02:57;8.68;;;3.83;;
53072;SDS011;38955;48.916;2.336;2023-04-25T11:05:01;8.85;;;3.72;;
53072;SDS011;38955;48.916;2.336;2023-04-25T11:07:06;13.18;;;4.45;;
53072;SDS011;38955;48.916;2.336;2023-04-25T11:09:15;12.45;;;3.72;;
53072;SDS011;38955;48.916;2.336;2023-04-25T11:11:17;9.95;;;3.67;;
53072;SDS011;38955;48.916;2.336;2023-04-25T11:13:20;10.68;;;4.20;;
53072;SDS011;38955;48.916;2.336;2023-04-25T11:15:23;11.70;;;4.15;;
53072;SDS011;38955;48.916;2.336;2023-04-25T11:17:26;13.68;;;3.75;;
53072;SDS011;38955;48.916;2.336;2023-04-25T11:19:29;19.27;;;3.80;;
53072;SDS011;38955;48.916;2.336;2023-04-25T11:21:31;14.93;;;4.38;;
53072;SDS011;38955;48.916;2.336;2023-04-25T11:23:34;9.32;;;3.42;;
53072;SDS011;38955;48.916;2.336;2023-04-25T11:25:38;14.68;;;4.30;;
53072;SDS011;38955;48.916;2.336;2023-04-25T11:27:49;15.18;;;5.07;;
53072;SDS011;38955;48.916;2.336;2023-04-25T11:29:52;12.98;;;4.50;;
53072;SDS011;38955;48.916;2.336;2023-04-25T11:31:54;14.07;;;4.00;;
53072;SDS011;38955;48.916;2.336;2023-04-25T11:33:59;16.30;;;4.32;;
53072;SDS011;38955;48.916;2.336;2023-04-25T11:36:02;14.32;;;4.40;;
53072;SDS011;38955;48.916;2.336;2023-04-25T11:38:04;22.50;;;4.72;;
53072;SDS011;38955;48.916;2.336;2023-04-25T11:40:07;16.45;;;4.22;;
53072;SDS011;38955;48.916;2.336;2023-04-25T11:42:14;11.68;;;3.88;;
53072;SDS011;38955;48.916;2.336;2023-04-25T11:44:17;16.10;;;4.30;;
53072;SDS011;38955;48.916;2.336;2023-04-25T11:46:22;22.45;;;5.10;;
53072;SDS011;38955;48.916;2.336;2023-04-25T11:48:24;18.40;;;4.65;;
53072;SDS011;38955;48.916;2.336;2023-04-25T11:50:28;20.73;;;5.15;;
53072;SDS011;38955;48.916;2.336;2023-04-25T11:52:36;30.00;;;5.40;;
53072;SDS011;38955;48.916;2.336;2023-04-25T11:54:40;25.52;;;4.75;;
53072;SDS011;38955;48.916;2.336;2023-04-25T11:56:42;17.77;;;4.75;;
53072;SDS011;38955;48.916;2.336;2023-04-25T11:58:55;20.15;;;5.57;;
53072;SDS011;38955;48.916;2.336;2023-04-25T12:00:59;21.05;;;4.97;;
53072;SDS011;38955;48.916;2.336;2023-04-25T12:03:01;20.15;;;4.70;;
53072;SDS011;38955;48.916;2.336;2023-04-25T12:05:06;23.58;;;5.07;;
53072;SDS011;38955;48.916;2.336;2023-04-25T12:07:30;20.40;;;5.07;;
53072;SDS011;38955;48.916;2.336;2023-04-25T12:09:32;24.15;;;5.43;;
53072;SDS011;38955;48.916;2.336;2023-04-25T12:11:40;13.85;;;3.88;;
53072;SDS011;38955;48.916;2.336;2023-04-25T12:13:43;15.18;;;4.60;;
53072;SDS011;38955;48.916;2.336;2023-04-25T12:15:47;17.85;;;4.57;;
53072;SDS011;38955;48.916;2.336;2023-04-25T12:17:50;22.48;;;5.18;;
53072;SDS011;38955;48.916;2.336;2023-04-25T12:19:54;23.42;;;4.82;;
53072;SDS011;38955;48.916;2.336;2023-04-25T12:21:56;18.30;;;5.07;;
53072;SDS011;38955;48.916;2.336;2023-04-25T12:24:08;23.48;;;4.45;;